sensor_id;sensor_type;location;lat;lon;timestamp;P1;durP1;ratioP1;P2;durP2;ratioP2
48285;SDS011;34102;47.716;10.296;2023-02-28T04:57:21;9.27;;;6.38;;
48285;SDS011;34102;47.716;10.296;2023-02-28T04:59:49;10.38;;;6.85;;
48285;SDS011;34102;47.716;10.296;2023-02-28T05:02:15;12.50;;;7.07;;
48285;SDS011;34102;47.716;10.296;2023-02-28T05:04:40;9.25;;;6.53;;
48285;SDS011;34102;47.716;10.296;2023-02-28T05:07:05;9.45;;;6.40;;
48285;SDS011;34102;47.716;10.296;2023-02-28T05:09:31;11.90;;;7.35;;
48285;SDS011;34102;47.716;10.296;2023-02-28T05:11:58;9.20;;;6.05;;
48285;SDS011;34102;47.716;10.296;2023-02-28T05:14:23;10.38;;;6.88;;
48285;SDS011;34102;47.716;10.296;2023-02-28T05:16:48;10.00;;;5.75;;
48285;SDS011;34102;47.716;10.296;2023-02-28T05:19:14;8.77;;;6.55;;
48285;SDS011;34102;47.716;10.296;2023-02-28T05:21:50;11.00;;;6.72;;
48285;SDS011;34102;47.716;10.296;2023-02-28T05:24:19;8.88;;;6.03;;
48285;SDS011;34102;47.716;10.296;2023-02-28T05:26:48;9.73;;;7.15;;
48285;SDS011;34102;47.716;10.296;2023-02-28T05:29:14;9.05;;;6.47;;
48285;SDS011;34102;47.716;10.296;2023-02-28T05:31:39;11.30;;;7.03;;
48285;SDS011;34102;47.716;10.296;2023-02-28T05:34:04;10.73;;;6.90;;
48285;SDS011;34102;47.716;10.296;2023-02-28T05:36:30;9.75;;;7.22;;
48285;SDS011;34102;47.716;10.296;2023-02-28T05:38:55;11.27;;;8.20;;
48285;SDS011;34102;47.716;10.296;2023-02-28T05:41:21;10.38;;;7.07;;
48285;SDS011;34102;47.716;10.296;2023-02-28T05:43:46;10.27;;;6.70;;
48285;SDS011;34102;47.716;10.296;2023-02-28T05:46:12;9.25;;;6.38;;
48285;SDS011;34102;47.716;10.296;2023-02-28T05:48:38;10.18;;;6.38;;
48285;SDS011;34102;47.716;10.296;2023-02-28T05:51:04;10.00;;;6.90;;
48285;SDS011;34102;47.716;10.296;2023-02-28T05:53:30;11.55;;;6.90;;
48285;SDS011;34102;47.716;10.296;2023-02-28T05:55:57;9.85;;;6.90;;
48285;SDS011;34102;47.716;10.296;2023-02-28T05:58:22;12.40;;;7.82;;
48285;SDS011;34102;47.716;10.296;2023-02-28T06:00:50;9.65;;;6.60;;
48285;SDS011;34102;47.716;10.296;2023-02-28T06:03:16;12.63;;;7.43;;
48285;SDS011;34102;47.716;10.296;2023-02-28T06:05:42;11.63;;;7.53;;
48285;SDS011;34102;47.716;10.296;2023-02-28T06:08:07;11.10;;;6.93;;
48285;SDS011;34102;47.716;10.296;2023-02-28T06:10:33;10.65;;;7.28;;
48285;SDS011;34102;47.716;10.296;2023-02-28T06:12:59;9.88;;;6.72;;
48285;SDS011;34102;47.716;10.296;2023-02-28T06:15:25;9.95;;;6.65;;
48285;SDS011;34102;47.716;10.296;2023-02-28T06:17:50;9.27;;;6.80;;
48285;SDS011;34102;47.716;10.296;2023-02-28T06:20:17;9.80;;;6.63;;
48285;SDS011;34102;47.716;10.296;2023-02-28T06:22:42;9.15;;;6.57;;
48285;SDS011;34102;47.716;10.296;2023-02-28T06:25:09;10.20;;;7.20;;
48285;SDS011;34102;47.716;10.296;2023-02-28T06:27:34;12.02;;;6.95;;
48285;SDS011;34102;47.716;10.296;2023-02-28T06:30:00;15.55;;;10.30;;
48285;SDS011;34102;47.716;10.296;2023-02-28T06:32:25;17.88;;;11.13;;
48285;SDS011;34102;47.716;10.296;2023-02-28T06:34:50;14.68;;;8.50;;
48285;SDS011;34102;47.716;10.296;2023-02-28T06:37:16;14.45;;;8.45;;
48285;SDS011;34102;47.716;10.296;2023-02-28T06:39:42;12.32;;;8.43;;
48285;SDS011;34102;47.716;10.296;2023-02-28T06:42:07;12.30;;;7.13;;
48285;SDS011;34102;47.716;10.296;2023-02-28T06:44:33;12.70;;;7.45;;
48285;SDS011;34102;47.716;10.296;2023-02-28T06:47:00;11.13;;;6.78;;
48285;SDS011;34102;47.716;10.296;2023-02-28T06:49:27;10.88;;;6.80;;
48285;SDS011;34102;47.716;10.296;2023-02-28T06:51:53;10.85;;;6.90;;
48285;SDS011;34102;47.716;10.296;2023-02-28T06:54:19;9.57;;;6.63;;
48285;SDS011;34102;47.716;10.296;2023-02-28T06:56:44;10.50;;;6.95;;
48285;SDS011;34102;47.716;10.296;2023-02-28T06:59:09;9.30;;;6.50;;
48285;SDS011;34102;47.716;10.296;2023-02-28T11:01:52;10.88;;;8.00;;
48285;SDS011;34102;47.716;10.296;2023-02-28T11:11:57;18.02;;;9.63;;
48285;SDS011;34102;47.716;10.296;2023-02-28T11:14:27;16.55;;;9.75;;
48285;SDS011;34102;47.716;10.296;2023-02-28T11:16:52;17.30;;;10.35;;
48285;SDS011;34102;47.716;10.296;2023-02-28T11:19:26;17.42;;;11.38;;
48285;SDS011;34102;47.716;10.296;2023-02-28T11:22:00;16.53;;;10.10;;
48285;SDS011;34102;47.716;10.296;2023-02-28T11:24:27;15.93;;;10.55;;
48285;SDS011;34102;47.716;10.296;2023-02-28T11:26:53;17.48;;;10.45;;
48285;SDS011;34102;47.716;10.296;2023-02-28T11:29:24;18.30;;;10.50;;
48285;SDS011;34102;47.716;10.296;2023-02-28T11:32:35;18.33;;;11.20;;
48285;SDS011;34102;47.716;10.296;2023-02-28T11:34:36;17.27;;;10.63;;
48285;SDS011;34102;47.716;10.296;2023-02-28T11:37:03;15.30;;;10.10;;
48285;SDS011;34102;47.716;10.296;2023-02-28T11:39:31;20.75;;;11.27;;
48285;SDS011;34102;47.716;10.296;2023-02-28T11:57:03;19.02;;;12.20;;
48285;SDS011;34102;47.716;10.296;2023-02-28T12:07:25;18.30;;;10.80;;
48285;SDS011;34102;47.716;10.296;2023-02-28T12:10:05;16.83;;;11.17;;
48285;SDS011;34102;47.716;10.296;2023-02-28T12:27:33;17.52;;;11.65;;
48285;SDS011;34102;47.716;10.296;2023-02-28T12:30:04;20.48;;;12.23;;
48285;SDS011;34102;47.716;10.296;2023-02-28T12:34:57;21.30;;;12.80;;
48285;SDS011;34102;47.716;10.296;2023-02-28T12:37:25;19.20;;;11.48;;
48285;SDS011;34102;47.716;10.296;2023-02-28T12:39:55;18.83;;;11.98;;
48285;SDS011;34102;47.716;10.296;2023-02-28T12:44:54;17.35;;;12.55;;
48285;SDS011;34102;47.716;10.296;2023-02-28T12:47:21;19.80;;;12.27;;
48285;SDS011;34102;47.716;10.296;2023-02-28T12:52:27;20.00;;;12.50;;
48285;SDS011;34102;47.716;10.296;2023-02-28T12:55:02;23.38;;;13.20;;
48285;SDS011;34102;47.716;10.296;2023-02-28T12:57:33;19.40;;;13.10;;
48285;SDS011;34102;47.716;10.296;2023-02-28T13:00:20;17.80;;;11.55;;
48285;SDS011;34102;47.716;10.296;2023-02-28T13:05:54;20.35;;;12.07;;
48285;SDS011;34102;47.716;10.296;2023-02-28T13:08:41;20.27;;;13.23;;
48285;SDS011;34102;47.716;10.296;2023-02-28T13:11:26;20.17;;;12.98;;
48285;SDS011;34102;47.716;10.296;2023-02-28T13:13:57;21.92;;;13.90;;
48285;SDS011;34102;47.716;10.296;2023-02-28T13:16:23;19.35;;;11.13;;
48285;SDS011;34102;47.716;10.296;2023-02-28T13:18:48;19.75;;;12.63;;
48285;SDS011;34102;47.716;10.296;2023-02-28T13:21:32;23.80;;;13.98;;
48285;SDS011;34102;47.716;10.296;2023-02-28T13:24:03;19.83;;;11.98;;
48285;SDS011;34102;47.716;10.296;2023-02-28T13:32:18;23.05;;;13.20;;
48285;SDS011;34102;47.716;10.296;2023-02-28T13:34:20;19.85;;;12.90;;
48285;SDS011;34102;47.716;10.296;2023-02-28T13:36:46;20.08;;;13.50;;
48285;SDS011;34102;47.716;10.296;2023-02-28T13:41:56;19.73;;;13.80;;
48285;SDS011;34102;47.716;10.296;2023-02-28T13:44:22;21.83;;;13.70;;
48285;SDS011;34102;47.716;10.296;2023-02-28T13:54:48;23.20;;;13.75;;
48285;SDS011;34102;47.716;10.296;2023-02-28T13:59:59;20.17;;;12.90;;
48285;SDS011;34102;47.716;10.296;2023-02-28T14:05:05;21.52;;;13.88;;
48285;SDS011;34102;47.716;10.296;2023-02-28T14:07:32;21.98;;;13.15;;
48285;SDS011;34102;47.716;10.296;2023-02-28T14:10:00;21.65;;;13.27;;
48285;SDS011;34102;47.716;10.296;2023-02-28T14:17:54;20.67;;;13.38;;
48285;SDS011;34102;47.716;10.296;2023-02-28T14:20:20;22.77;;;14.52;;
48285;SDS011;34102;47.716;10.296;2023-02-28T14:22:52;23.55;;;13.77;;
48285;SDS011;34102;47.716;10.296;2023-02-28T14:30:40;26.25;;;13.27;;
48285;SDS011;34102;47.716;10.296;2023-02-28T14:33:14;20.73;;;12.60;;
48285;SDS011;34102;47.716;10.296;2023-02-28T14:38:56;22.85;;;12.60;;
48285;SDS011;34102;47.716;10.296;2023-02-28T14:41:30;23.85;;;14.05;;
48285;SDS011;34102;47.716;10.296;2023-02-28T14:43:56;24.58;;;13.60;;
48285;SDS011;34102;47.716;10.296;2023-02-28T14:46:23;23.17;;;13.05;;
48285;SDS011;34102;47.716;10.296;2023-02-28T14:48:50;20.33;;;12.50;;
48285;SDS011;34102;47.716;10.296;2023-02-28T14:51:20;23.95;;;13.38;;
48285;SDS011;34102;47.716;10.296;2023-02-28T14:53:48;23.73;;;14.40;;
48285;SDS011;34102;47.716;10.296;2023-02-28T14:56:34;24.45;;;14.20;;
48285;SDS011;34102;47.716;10.296;2023-02-28T14:58:59;24.15;;;13.27;;
48285;SDS011;34102;47.716;10.296;2023-02-28T15:01:25;24.40;;;14.15;;
48285;SDS011;34102;47.716;10.296;2023-02-28T15:03:58;21.55;;;13.32;;
48285;SDS011;34102;47.716;10.296;2023-02-28T15:06:23;23.70;;;12.90;;
48285;SDS011;34102;47.716;10.296;2023-02-28T15:09:06;20.00;;;13.25;;
48285;SDS011;34102;47.716;10.296;2023-02-28T15:11:33;21.77;;;12.95;;
48285;SDS011;34102;47.716;10.296;2023-02-28T15:13:58;23.13;;;13.85;;
48285;SDS011;34102;47.716;10.296;2023-02-28T15:19:00;24.27;;;14.27;;
48285;SDS011;34102;47.716;10.296;2023-02-28T15:26:25;25.45;;;13.02;;
48285;SDS011;34102;47.716;10.296;2023-02-28T15:28:54;30.73;;;12.55;;
48285;SDS011;34102;47.716;10.296;2023-02-28T15:31:25;27.70;;;14.20;;
48285;SDS011;34102;47.716;10.296;2023-02-28T15:33:52;23.77;;;12.73;;
48285;SDS011;34102;47.716;10.296;2023-02-28T15:36:17;22.15;;;12.82;;
48285;SDS011;34102;47.716;10.296;2023-02-28T15:38:45;25.63;;;13.18;;
48285;SDS011;34102;47.716;10.296;2023-02-28T15:41:28;21.02;;;12.57;;
48285;SDS011;34102;47.716;10.296;2023-02-28T15:44:13;19.38;;;11.00;;
48285;SDS011;34102;47.716;10.296;2023-02-28T15:46:40;18.38;;;12.50;;
48285;SDS011;34102;47.716;10.296;2023-02-28T15:49:18;18.50;;;11.73;;
48285;SDS011;34102;47.716;10.296;2023-02-28T15:51:44;19.55;;;12.00;;
48285;SDS011;34102;47.716;10.296;2023-02-28T15:54:14;19.48;;;12.45;;
48285;SDS011;34102;47.716;10.296;2023-02-28T15:56:45;21.45;;;13.40;;
48285;SDS011;34102;47.716;10.296;2023-02-28T15:59:15;22.08;;;11.93;;
48285;SDS011;34102;47.716;10.296;2023-02-28T16:01:41;18.67;;;11.32;;
48285;SDS011;34102;47.716;10.296;2023-02-28T16:06:39;21.52;;;12.82;;
48285;SDS011;34102;47.716;10.296;2023-02-28T16:09:08;21.35;;;12.43;;
48285;SDS011;34102;47.716;10.296;2023-02-28T16:11:38;23.10;;;14.65;;
48285;SDS011;34102;47.716;10.296;2023-02-28T16:14:04;22.42;;;12.93;;
48285;SDS011;34102;47.716;10.296;2023-02-28T16:16:30;22.30;;;13.02;;
48285;SDS011;34102;47.716;10.296;2023-02-28T16:18:56;22.30;;;13.57;;
48285;SDS011;34102;47.716;10.296;2023-02-28T16:21:21;23.33;;;13.88;;
48285;SDS011;34102;47.716;10.296;2023-02-28T16:23:47;24.45;;;13.88;;
48285;SDS011;34102;47.716;10.296;2023-02-28T16:26:16;20.23;;;12.63;;
48285;SDS011;34102;47.716;10.296;2023-02-28T16:28:43;22.35;;;12.48;;
48285;SDS011;34102;47.716;10.296;2023-02-28T16:31:09;21.92;;;13.60;;
48285;SDS011;34102;47.716;10.296;2023-02-28T16:33:41;18.98;;;12.20;;
48285;SDS011;34102;47.716;10.296;2023-02-28T16:36:09;22.27;;;13.05;;
48285;SDS011;34102;47.716;10.296;2023-02-28T16:38:34;21.55;;;13.15;;
48285;SDS011;34102;47.716;10.296;2023-02-28T16:41:00;23.73;;;13.65;;
48285;SDS011;34102;47.716;10.296;2023-02-28T16:43:25;29.48;;;14.85;;
48285;SDS011;34102;47.716;10.296;2023-02-28T16:45:55;24.50;;;14.77;;
48285;SDS011;34102;47.716;10.296;2023-02-28T16:48:21;24.27;;;13.88;;
48285;SDS011;34102;47.716;10.296;2023-02-28T16:50:46;22.02;;;13.82;;
48285;SDS011;34102;47.716;10.296;2023-02-28T16:53:11;24.33;;;14.00;;
48285;SDS011;34102;47.716;10.296;2023-02-28T16:55:40;23.40;;;13.38;;
48285;SDS011;34102;47.716;10.296;2023-02-28T16:58:05;23.27;;;13.90;;
48285;SDS011;34102;47.716;10.296;2023-02-28T17:00:31;23.08;;;12.82;;
48285;SDS011;34102;47.716;10.296;2023-02-28T17:02:57;21.38;;;13.40;;
48285;SDS011;34102;47.716;10.296;2023-02-28T17:05:24;22.20;;;13.57;;
48285;SDS011;34102;47.716;10.296;2023-02-28T17:07:50;23.63;;;13.35;;
48285;SDS011;34102;47.716;10.296;2023-02-28T17:10:23;25.48;;;14.63;;
48285;SDS011;34102;47.716;10.296;2023-02-28T17:12:49;21.90;;;13.15;;
48285;SDS011;34102;47.716;10.296;2023-02-28T17:15:15;22.70;;;13.48;;
48285;SDS011;34102;47.716;10.296;2023-02-28T17:17:41;22.30;;;13.27;;
48285;SDS011;34102;47.716;10.296;2023-02-28T17:20:10;20.80;;;13.30;;
48285;SDS011;34102;47.716;10.296;2023-02-28T17:22:36;26.05;;;15.35;;
48285;SDS011;34102;47.716;10.296;2023-02-28T17:25:01;20.33;;;13.13;;
48285;SDS011;34102;47.716;10.296;2023-02-28T17:27:27;22.75;;;13.77;;
48285;SDS011;34102;47.716;10.296;2023-02-28T17:29:52;21.30;;;13.48;;
48285;SDS011;34102;47.716;10.296;2023-02-28T17:32:18;22.05;;;13.98;;
48285;SDS011;34102;47.716;10.296;2023-02-28T17:34:44;24.23;;;13.88;;
48285;SDS011;34102;47.716;10.296;2023-02-28T17:37:10;21.95;;;13.43;;
48285;SDS011;34102;47.716;10.296;2023-02-28T17:39:36;27.52;;;16.13;;
48285;SDS011;34102;47.716;10.296;2023-02-28T17:42:01;24.25;;;14.68;;
48285;SDS011;34102;47.716;10.296;2023-02-28T17:44:27;27.25;;;15.32;;
48285;SDS011;34102;47.716;10.296;2023-02-28T17:46:53;25.70;;;15.13;;
48285;SDS011;34102;47.716;10.296;2023-02-28T17:49:18;26.35;;;14.93;;
48285;SDS011;34102;47.716;10.296;2023-02-28T17:51:44;26.60;;;14.32;;
48285;SDS011;34102;47.716;10.296;2023-02-28T17:54:09;22.95;;;13.80;;
48285;SDS011;34102;47.716;10.296;2023-02-28T17:56:35;24.42;;;14.43;;
48285;SDS011;34102;47.716;10.296;2023-02-28T17:59:00;28.17;;;15.43;;
48285;SDS011;34102;47.716;10.296;2023-02-28T18:01:28;27.58;;;15.32;;
48285;SDS011;34102;47.716;10.296;2023-02-28T18:03:53;27.50;;;16.58;;
48285;SDS011;34102;47.716;10.296;2023-02-28T18:06:21;26.25;;;15.98;;
48285;SDS011;34102;47.716;10.296;2023-02-28T18:08:47;27.98;;;16.13;;
48285;SDS011;34102;47.716;10.296;2023-02-28T18:11:13;24.77;;;15.35;;
48285;SDS011;34102;47.716;10.296;2023-02-28T18:13:49;27.42;;;15.50;;
48285;SDS011;34102;47.716;10.296;2023-02-28T18:16:15;25.08;;;14.85;;
48285;SDS011;34102;47.716;10.296;2023-02-28T18:18:40;26.83;;;16.98;;
48285;SDS011;34102;47.716;10.296;2023-02-28T18:21:06;28.52;;;16.05;;
48285;SDS011;34102;47.716;10.296;2023-02-28T18:23:33;27.45;;;17.55;;
48285;SDS011;34102;47.716;10.296;2023-02-28T18:25:59;29.40;;;17.15;;
48285;SDS011;34102;47.716;10.296;2023-02-28T18:28:24;28.00;;;15.65;;
48285;SDS011;34102;47.716;10.296;2023-02-28T18:30:50;28.17;;;16.33;;
48285;SDS011;34102;47.716;10.296;2023-02-28T18:33:15;28.52;;;16.25;;
48285;SDS011;34102;47.716;10.296;2023-02-28T18:35:41;26.52;;;15.60;;
48285;SDS011;34102;47.716;10.296;2023-02-28T18:38:17;27.02;;;16.35;;
48285;SDS011;34102;47.716;10.296;2023-02-28T18:40:54;28.70;;;17.23;;
48285;SDS011;34102;47.716;10.296;2023-02-28T18:43:20;29.67;;;17.33;;
48285;SDS011;34102;47.716;10.296;2023-02-28T18:45:45;28.85;;;16.35;;
48285;SDS011;34102;47.716;10.296;2023-02-28T18:48:11;28.70;;;16.95;;
48285;SDS011;34102;47.716;10.296;2023-02-28T18:50:37;30.55;;;16.58;;
48285;SDS011;34102;47.716;10.296;2023-02-28T18:53:03;27.85;;;16.45;;
48285;SDS011;34102;47.716;10.296;2023-02-28T18:55:30;29.70;;;17.00;;
48285;SDS011;34102;47.716;10.296;2023-02-28T18:57:55;31.70;;;16.98;;
48285;SDS011;34102;47.716;10.296;2023-02-28T19:00:22;32.63;;;17.35;;
48285;SDS011;34102;47.716;10.296;2023-02-28T19:02:49;40.50;;;24.05;;
48285;SDS011;34102;47.716;10.296;2023-02-28T19:05:15;35.70;;;20.77;;
48285;SDS011;34102;47.716;10.296;2023-02-28T19:07:40;37.08;;;20.73;;
48285;SDS011;34102;47.716;10.296;2023-02-28T19:10:06;40.17;;;22.73;;
48285;SDS011;34102;47.716;10.296;2023-02-28T19:12:35;32.13;;;18.30;;
48285;SDS011;34102;47.716;10.296;2023-02-28T19:15:01;33.50;;;19.52;;
48285;SDS011;34102;47.716;10.296;2023-02-28T19:17:27;38.47;;;19.40;;
48285;SDS011;34102;47.716;10.296;2023-02-28T19:19:52;40.67;;;21.30;;
48285;SDS011;34102;47.716;10.296;2023-02-28T19:22:17;33.40;;;19.48;;
48285;SDS011;34102;47.716;10.296;2023-02-28T19:24:43;36.55;;;20.08;;
48285;SDS011;34102;47.716;10.296;2023-02-28T19:27:09;36.08;;;20.38;;
48285;SDS011;34102;47.716;10.296;2023-02-28T19:29:35;37.83;;;21.13;;
48285;SDS011;34102;47.716;10.296;2023-02-28T19:32:00;37.50;;;21.42;;
48285;SDS011;34102;47.716;10.296;2023-02-28T19:34:28;53.20;;;23.90;;
48285;SDS011;34102;47.716;10.296;2023-02-28T19:36:53;33.60;;;19.48;;
48285;SDS011;34102;47.716;10.296;2023-02-28T19:39:20;36.83;;;19.95;;
48285;SDS011;34102;47.716;10.296;2023-02-28T19:41:46;32.53;;;18.38;;
48285;SDS011;34102;47.716;10.296;2023-02-28T19:44:11;38.65;;;21.27;;
48285;SDS011;34102;47.716;10.296;2023-02-28T19:46:36;30.95;;;18.05;;
48285;SDS011;34102;47.716;10.296;2023-02-28T19:49:02;33.50;;;17.60;;
48285;SDS011;34102;47.716;10.296;2023-02-28T19:51:28;32.30;;;18.67;;
48285;SDS011;34102;47.716;10.296;2023-02-28T19:53:54;32.45;;;17.67;;
48285;SDS011;34102;47.716;10.296;2023-02-28T19:56:20;29.00;;;16.63;;
48285;SDS011;34102;47.716;10.296;2023-02-28T19:58:45;34.35;;;19.67;;
48285;SDS011;34102;47.716;10.296;2023-02-28T20:01:12;31.77;;;18.73;;
48285;SDS011;34102;47.716;10.296;2023-02-28T20:03:37;31.20;;;18.00;;
48285;SDS011;34102;47.716;10.296;2023-02-28T20:06:04;32.95;;;18.95;;
48285;SDS011;34102;47.716;10.296;2023-02-28T20:08:31;32.53;;;19.27;;
48285;SDS011;34102;47.716;10.296;2023-02-28T20:11:10;33.90;;;18.00;;
48285;SDS011;34102;47.716;10.296;2023-02-28T20:13:36;32.30;;;19.85;;
48285;SDS011;34102;47.716;10.296;2023-02-28T20:16:02;29.83;;;17.73;;
48285;SDS011;34102;47.716;10.296;2023-02-28T20:18:33;28.38;;;17.30;;
48285;SDS011;34102;47.716;10.296;2023-02-28T20:20:58;33.80;;;18.10;;
48285;SDS011;34102;47.716;10.296;2023-02-28T20:23:24;30.45;;;18.42;;
48285;SDS011;34102;47.716;10.296;2023-02-28T20:25:50;32.05;;;17.73;;
48285;SDS011;34102;47.716;10.296;2023-02-28T20:28:16;28.80;;;16.85;;
48285;SDS011;34102;47.716;10.296;2023-02-28T20:30:42;33.10;;;18.35;;
48285;SDS011;34102;47.716;10.296;2023-02-28T20:33:08;31.30;;;18.35;;
48285;SDS011;34102;47.716;10.296;2023-02-28T20:35:33;29.55;;;17.63;;
48285;SDS011;34102;47.716;10.296;2023-02-28T20:37:59;34.65;;;19.35;;
48285;SDS011;34102;47.716;10.296;2023-02-28T20:40:24;33.75;;;18.30;;
48285;SDS011;34102;47.716;10.296;2023-02-28T20:42:50;32.60;;;17.83;;
48285;SDS011;34102;47.716;10.296;2023-02-28T20:45:15;28.80;;;18.33;;
48285;SDS011;34102;47.716;10.296;2023-02-28T20:47:41;31.95;;;17.38;;
48285;SDS011;34102;47.716;10.296;2023-02-28T20:50:08;33.83;;;18.25;;
48285;SDS011;34102;47.716;10.296;2023-02-28T20:52:33;27.30;;;16.65;;
48285;SDS011;34102;47.716;10.296;2023-02-28T20:54:59;30.98;;;17.80;;
48285;SDS011;34102;47.716;10.296;2023-02-28T20:57:27;31.25;;;16.25;;
48285;SDS011;34102;47.716;10.296;2023-02-28T20:59:52;27.85;;;16.65;;
48285;SDS011;34102;47.716;10.296;2023-02-28T21:02:18;28.65;;;17.65;;
48285;SDS011;34102;47.716;10.296;2023-02-28T21:04:45;29.40;;;17.58;;
48285;SDS011;34102;47.716;10.296;2023-02-28T21:07:10;28.92;;;17.73;;
48285;SDS011;34102;47.716;10.296;2023-02-28T21:09:35;30.38;;;17.73;;
48285;SDS011;34102;47.716;10.296;2023-02-28T21:12:01;29.02;;;17.58;;
48285;SDS011;34102;47.716;10.296;2023-02-28T21:14:26;30.17;;;18.50;;
48285;SDS011;34102;47.716;10.296;2023-02-28T21:16:52;29.92;;;18.27;;
48285;SDS011;34102;47.716;10.296;2023-02-28T21:19:17;31.52;;;18.80;;
48285;SDS011;34102;47.716;10.296;2023-02-28T21:21:43;32.58;;;17.90;;
48285;SDS011;34102;47.716;10.296;2023-02-28T21:24:09;29.35;;;17.50;;
48285;SDS011;34102;47.716;10.296;2023-02-28T21:26:37;29.63;;;17.33;;
48285;SDS011;34102;47.716;10.296;2023-02-28T21:29:02;28.95;;;16.92;;
